createdAt,value
2022-09-07T00:00:10.018Z,14.28
2022-09-07T00:00:56.893Z,14.25
2022-09-07T00:01:43.763Z,14.23
2022-09-07T00:02:30.593Z,14.20
2022-09-07T00:03:17.615Z,14.19
2022-09-07T00:04:04.897Z,14.14
2022-09-07T00:04:51.784Z,14.10
2022-09-07T00:05:43.414Z,14.16
2022-09-07T00:06:31.122Z,14.15
2022-09-07T00:07:17.955Z,14.12
2022-09-07T00:08:04.781Z,14.12
2022-09-07T00:08:51.603Z,14.15
2022-09-07T00:09:40.362Z,14.14
2022-09-07T00:10:28.340Z,14.15
2022-09-07T00:11:17.921Z,14.16
2022-09-07T00:12:05.045Z,14.16
2022-09-07T00:12:52.303Z,14.15
2022-09-07T00:13:40.636Z,14.11
2022-09-07T00:14:27.423Z,14.06
2022-09-07T00:15:14.221Z,14.06
2022-09-07T00:16:06.570Z,14.03
2022-09-07T00:16:53.385Z,14.05
2022-09-07T00:17:40.263Z,14.05
2022-09-07T00:18:27.131Z,13.99
2022-09-07T00:19:14.063Z,14.00
2022-09-07T00:20:00.932Z,14.00
2022-09-07T00:20:47.762Z,13.96
2022-09-07T00:21:34.673Z,13.96
2022-09-07T00:22:21.742Z,14.01
2022-09-07T00:23:08.563Z,13.95
2022-09-07T00:23:55.966Z,13.94
2022-09-07T00:24:42.807Z,13.95
2022-09-07T00:25:31.882Z,14.01
2022-09-07T00:26:25.295Z,13.99
2022-09-07T00:27:12.064Z,13.99
2022-09-07T00:27:59.163Z,14.07
2022-09-07T00:28:46.370Z,14.05
2022-09-07T00:29:33.303Z,14.04
2022-09-07T00:30:20.032Z,14.02
2022-09-07T00:31:11.760Z,14.06
2022-09-07T00:31:58.584Z,14.08
2022-09-07T00:32:45.601Z,14.13
2022-09-07T00:33:32.365Z,14.14
2022-09-07T00:34:19.282Z,14.12
2022-09-07T00:35:06.472Z,14.12
2022-09-07T00:35:53.864Z,14.11
2022-09-07T00:36:40.742Z,14.04
2022-09-07T00:37:27.493Z,14.03
2022-09-07T00:38:14.373Z,14.04
2022-09-07T00:39:01.174Z,14.06
2022-09-07T00:39:48.708Z,14.05
2022-09-07T00:40:35.842Z,14.04
2022-09-07T00:41:23.782Z,14.02
2022-09-07T00:42:10.583Z,14.01
2022-09-07T00:42:57.423Z,13.99
2022-09-07T00:43:50.832Z,13.94
2022-09-07T00:44:43.792Z,13.96
2022-09-07T00:45:30.802Z,14.00
2022-09-07T00:46:23.644Z,14.00
2022-09-07T00:47:16.322Z,14.00
2022-09-07T00:48:10.965Z,14.01
2022-09-07T00:49:02.582Z,14.01
2022-09-07T00:49:52.823Z,14.00
2022-09-07T00:50:52.194Z,13.95
2022-09-07T00:51:40.192Z,13.90
2022-09-07T00:52:28.702Z,13.97
2022-09-07T00:53:38.272Z,13.89
2022-09-07T00:54:49.812Z,13.84
2022-09-07T00:55:38.867Z,13.80
2022-09-07T00:56:30.311Z,13.78
2022-09-07T00:57:17.276Z,13.78
2022-09-07T00:58:04.923Z,13.80
2022-09-07T00:58:51.923Z,13.74
2022-09-07T00:59:45.366Z,13.71
2022-09-07T01:00:32.242Z,13.76
2022-09-07T01:01:19.389Z,13.71
2022-09-07T01:02:06.561Z,13.67
2022-09-07T01:02:55.539Z,13.66
2022-09-07T01:03:46.242Z,13.71
2022-09-07T01:04:33.276Z,13.77
2022-09-07T01:05:28.282Z,13.76
2022-09-07T01:06:24.343Z,13.76
2022-09-07T01:07:11.113Z,13.76
2022-09-07T01:07:58.713Z,13.80
2022-09-07T01:08:47.945Z,13.84
2022-09-07T01:09:35.432Z,13.82
2022-09-07T01:10:25.272Z,13.81
2022-09-07T01:11:12.763Z,13.76
2022-09-07T01:12:01.043Z,13.74
2022-09-07T01:12:47.753Z,13.69
2022-09-07T01:13:34.715Z,13.68
2022-09-07T01:14:24.301Z,13.64
2022-09-07T01:15:11.192Z,13.61
2022-09-07T01:16:30.223Z,13.63
2022-09-07T01:17:29.332Z,13.69
2022-09-07T01:18:37.995Z,13.72
2022-09-07T01:19:42.994Z,13.67
2022-09-07T01:20:50.606Z,13.60
2022-09-07T01:22:09.573Z,13.65
2022-09-07T01:23:02.522Z,13.71
2022-09-07T01:23:54.863Z,13.74
2022-09-07T01:24:54.122Z,13.69
2022-09-07T01:25:42.958Z,13.67
2022-09-07T01:26:41.592Z,13.69
2022-09-07T01:28:05.532Z,13.68
2022-09-07T01:28:59.993Z,13.65
2022-09-07T01:29:55.332Z,13.64
2022-09-07T01:30:46.498Z,13.61
2022-09-07T01:31:59.122Z,13.65
2022-09-07T01:33:15.412Z,13.66
2022-09-07T01:34:20.423Z,13.65
2022-09-07T01:35:14.016Z,13.62
2022-09-07T01:36:14.942Z,13.57
2022-09-07T01:37:01.662Z,13.58
2022-09-07T01:38:00.663Z,13.55
2022-09-07T01:38:52.474Z,13.51
2022-09-07T01:39:51.848Z,13.46
2022-09-07T01:40:57.202Z,13.52
2022-09-07T01:41:52.583Z,13.47
2022-09-07T01:42:46.362Z,13.46
2022-09-07T01:44:18.043Z,13.46
2022-09-07T01:45:11.564Z,13.46
2022-09-07T01:45:59.198Z,13.47
2022-09-07T01:46:51.432Z,13.49
2022-09-07T01:47:43.022Z,13.50
2022-09-07T01:48:31.594Z,13.48
2022-09-07T01:49:23.473Z,13.47
2022-09-07T01:50:23.002Z,13.48
2022-09-07T01:51:11.877Z,13.52
2022-09-07T01:52:06.713Z,13.45
2022-09-07T01:52:58.192Z,13.43
2022-09-07T01:53:51.982Z,13.44
2022-09-07T01:54:42.603Z,13.38
2022-09-07T01:55:35.863Z,13.41
2022-09-07T01:56:34.082Z,13.45
2022-09-07T01:57:33.293Z,13.43
2022-09-07T01:58:21.652Z,13.50
2022-09-07T01:59:20.582Z,13.51
2022-09-07T02:00:09.875Z,13.43
2022-09-07T02:01:05.482Z,13.43
2022-09-07T02:01:58.895Z,13.44
2022-09-07T02:02:49.371Z,13.41
2022-09-07T02:03:41.932Z,13.36
2022-09-07T02:04:35.255Z,13.33
2022-09-07T02:05:28.663Z,13.34
2022-09-07T02:06:23.293Z,13.35
2022-09-07T02:07:30.302Z,13.32
2022-09-07T02:08:21.966Z,13.30
2022-09-07T02:09:31.492Z,13.27
2022-09-07T02:10:28.933Z,13.32
2022-09-07T02:11:25.263Z,13.34
2022-09-07T02:12:19.142Z,13.24
2022-09-07T02:13:10.392Z,13.26
2022-09-07T02:14:24.606Z,13.30
2022-09-07T02:15:15.345Z,13.21
2022-09-07T02:16:07.076Z,13.24
2022-09-07T02:17:17.213Z,13.21
2022-09-07T02:18:06.010Z,13.17
2022-09-07T02:19:04.443Z,13.15
2022-09-07T02:19:55.123Z,13.18
2022-09-07T02:20:47.881Z,13.22
2022-09-07T02:21:41.933Z,13.22
2022-09-07T02:22:32.262Z,13.16
2022-09-07T02:23:22.095Z,13.16
2022-09-07T02:24:13.682Z,13.17
2022-09-07T02:25:02.355Z,13.11
2022-09-07T02:25:55.258Z,13.08
2022-09-07T02:26:43.333Z,13.11
2022-09-07T02:27:38.163Z,13.05
2022-09-07T02:28:30.697Z,13.02
2022-09-07T02:29:17.512Z,13.05
2022-09-07T02:30:04.453Z,13.01
2022-09-07T02:30:51.336Z,13.00
2022-09-07T02:31:38.322Z,13.00
2022-09-07T02:32:25.133Z,13.01
2022-09-07T02:33:12.014Z,13.01
2022-09-07T02:34:02.142Z,13.04
2022-09-07T02:34:50.043Z,12.98
2022-09-07T02:35:36.824Z,13.00
2022-09-07T02:36:27.054Z,12.99
2022-09-07T02:37:14.161Z,12.97
2022-09-07T02:38:04.043Z,12.99
2022-09-07T02:38:50.773Z,13.00
2022-09-07T02:39:38.637Z,12.99
2022-09-07T02:40:25.484Z,13.00
2022-09-07T02:41:39.694Z,13.00
2022-09-07T02:42:29.622Z,13.03
2022-09-07T02:43:16.415Z,13.00
2022-09-07T02:44:07.764Z,12.99
2022-09-07T02:44:54.553Z,12.98
2022-09-07T02:46:18.681Z,12.98
2022-09-07T02:47:08.373Z,12.97
2022-09-07T02:48:07.172Z,12.93
2022-09-07T02:49:05.772Z,12.91
2022-09-07T02:50:13.843Z,12.92
2022-09-07T02:51:36.104Z,12.89
2022-09-07T02:52:50.965Z,12.92
2022-09-07T02:54:03.105Z,12.95
2022-09-07T02:55:40.422Z,12.99
2022-09-07T02:56:46.384Z,12.95
2022-09-07T02:57:39.034Z,12.97
2022-09-07T02:58:53.962Z,12.97
2022-09-07T03:00:00.842Z,12.93
2022-09-07T03:01:01.325Z,13.01
2022-09-07T03:02:12.067Z,12.97
2022-09-07T03:03:27.053Z,12.93
2022-09-07T03:04:19.943Z,12.91
2022-09-07T03:05:19.942Z,12.91
2022-09-07T03:06:30.362Z,12.97
2022-09-07T03:07:20.466Z,13.05
2022-09-07T03:08:20.882Z,13.06
2022-09-07T03:09:12.062Z,13.00
2022-09-07T03:10:00.274Z,12.94
2022-09-07T03:10:47.684Z,12.93
2022-09-07T03:11:37.785Z,12.90
2022-09-07T03:12:24.642Z,12.93
2022-09-07T03:13:28.453Z,12.96
2022-09-07T03:14:16.363Z,12.92
2022-09-07T03:15:03.223Z,12.85
2022-09-07T03:15:55.009Z,12.88
2022-09-07T03:16:43.142Z,12.79
2022-09-07T03:17:29.903Z,12.81
2022-09-07T03:18:16.713Z,12.79
2022-09-07T03:19:03.670Z,12.76
2022-09-07T03:19:50.403Z,12.74
2022-09-07T03:20:37.123Z,12.69
2022-09-07T03:21:24.031Z,12.75
2022-09-07T03:22:10.762Z,12.72
2022-09-07T03:22:57.511Z,12.72
2022-09-07T03:23:45.437Z,12.71
2022-09-07T03:24:34.572Z,12.75
2022-09-07T03:25:22.933Z,12.69
2022-09-07T03:26:20.137Z,12.68
2022-09-07T03:27:07.091Z,12.70
2022-09-07T03:27:53.903Z,12.72
2022-09-07T03:28:40.583Z,12.73
2022-09-07T03:29:27.394Z,12.70
2022-09-07T03:30:14.502Z,12.74
2022-09-07T03:31:02.383Z,12.73
2022-09-07T03:31:49.782Z,12.68
2022-09-07T03:32:38.063Z,12.65
2022-09-07T03:33:24.935Z,12.61
2022-09-07T03:34:12.063Z,12.62
2022-09-07T03:35:00.842Z,12.64
2022-09-07T03:36:00.073Z,12.62
2022-09-07T03:36:47.000Z,12.65
2022-09-07T03:37:36.582Z,12.66
2022-09-07T03:38:23.291Z,12.61
2022-09-07T03:39:12.092Z,12.57
2022-09-07T03:39:58.891Z,12.58
2022-09-07T03:40:45.652Z,12.58
2022-09-07T03:41:32.393Z,12.62
2022-09-07T03:42:19.297Z,12.65
2022-09-07T03:43:06.035Z,12.69
2022-09-07T03:43:52.893Z,12.68
2022-09-07T03:44:39.662Z,12.67
2022-09-07T03:45:26.482Z,12.68
2022-09-07T03:46:16.226Z,12.63
2022-09-07T03:47:03.512Z,12.65
2022-09-07T03:47:51.285Z,12.68
2022-09-07T03:48:39.499Z,12.66
2022-09-07T03:49:26.322Z,12.63
2022-09-07T03:50:13.137Z,12.65
2022-09-07T03:51:06.342Z,12.66
2022-09-07T03:51:53.093Z,12.68
2022-09-07T03:52:39.872Z,12.65
2022-09-07T03:53:27.081Z,12.65
2022-09-07T03:54:13.837Z,12.65
2022-09-07T03:55:00.584Z,12.65
2022-09-07T03:56:03.673Z,12.62
2022-09-07T03:56:50.604Z,12.60
2022-09-07T03:57:37.387Z,12.64
2022-09-07T03:58:24.182Z,12.61
2022-09-07T03:59:10.934Z,12.63
2022-09-07T03:59:57.683Z,12.60
2022-09-07T04:00:44.392Z,12.58
2022-09-07T04:01:31.309Z,12.56
2022-09-07T04:02:18.203Z,12.53
2022-09-07T04:03:05.053Z,12.52
2022-09-07T04:03:51.962Z,12.50
2022-09-07T04:04:38.785Z,12.52
2022-09-07T04:05:25.513Z,12.50
2022-09-07T04:06:13.112Z,12.49
2022-09-07T04:06:59.942Z,12.48
2022-09-07T04:07:48.605Z,12.47
2022-09-07T04:08:36.617Z,12.51
2022-09-07T04:09:23.383Z,12.50
2022-09-07T04:10:10.386Z,12.48
2022-09-07T04:10:58.459Z,12.51
2022-09-07T04:11:45.182Z,12.52
2022-09-07T04:12:31.939Z,12.58
2022-09-07T04:13:18.702Z,12.55
2022-09-07T04:14:06.161Z,12.53
2022-09-07T04:14:52.882Z,12.52
2022-09-07T04:15:39.675Z,12.55
2022-09-07T04:16:27.410Z,12.54
2022-09-07T04:17:14.271Z,12.54
2022-09-07T04:18:01.622Z,12.53
2022-09-07T04:18:50.509Z,12.57
2022-09-07T04:19:37.242Z,12.59
2022-09-07T04:20:24.083Z,12.61
2022-09-07T04:21:11.392Z,12.67
2022-09-07T04:21:58.153Z,12.72
2022-09-07T04:22:51.399Z,12.69
2022-09-07T04:23:41.663Z,12.66
2022-09-07T04:24:28.542Z,12.65
2022-09-07T04:25:15.513Z,12.64
2022-09-07T04:26:02.231Z,12.64
2022-09-07T04:26:49.092Z,12.69
2022-09-07T04:27:35.882Z,12.70
2022-09-07T04:28:22.712Z,12.72
2022-09-07T04:29:10.552Z,12.72
2022-09-07T04:29:57.282Z,12.68
2022-09-07T04:30:44.037Z,12.73
2022-09-07T04:31:31.174Z,12.79
2022-09-07T04:32:18.165Z,12.82
2022-09-07T04:33:04.864Z,12.83
2022-09-07T04:33:52.258Z,12.84
2022-09-07T04:34:39.047Z,12.85
2022-09-07T04:35:25.842Z,12.90
2022-09-07T04:36:13.332Z,12.88
2022-09-07T04:37:00.162Z,12.95
2022-09-07T04:37:46.922Z,12.97
2022-09-07T04:38:33.637Z,12.96
2022-09-07T04:39:20.354Z,13.00
2022-09-07T04:40:07.449Z,13.03
2022-09-07T04:41:10.012Z,13.03
2022-09-07T04:41:56.932Z,13.05
2022-09-07T04:42:43.934Z,13.05
2022-09-07T04:43:30.701Z,13.02
2022-09-07T04:44:17.537Z,13.00
2022-09-07T04:45:05.971Z,13.06
2022-09-07T04:45:52.703Z,13.10
2022-09-07T04:46:39.564Z,13.13
2022-09-07T04:47:26.436Z,13.18
2022-09-07T04:48:13.294Z,13.19
2022-09-07T04:49:01.981Z,13.20
2022-09-07T04:49:52.404Z,13.22
2022-09-07T04:50:39.156Z,13.25
2022-09-07T04:51:28.432Z,13.26
2022-09-07T04:52:15.167Z,13.26
2022-09-07T04:53:01.932Z,13.27
2022-09-07T04:53:50.341Z,13.33
2022-09-07T04:54:37.055Z,13.32
2022-09-07T04:55:23.893Z,13.29
2022-09-07T04:56:15.050Z,13.29
2022-09-07T04:57:03.637Z,13.33
2022-09-07T04:57:50.584Z,13.35
2022-09-07T04:58:37.380Z,13.37
2022-09-07T04:59:24.123Z,13.38
2022-09-07T05:00:11.729Z,13.44
2022-09-07T05:01:05.311Z,13.42
2022-09-07T05:01:52.110Z,13.42
2022-09-07T05:02:39.163Z,13.48
2022-09-07T05:03:25.972Z,13.53
2022-09-07T05:04:12.723Z,13.61
2022-09-07T05:05:02.591Z,13.63
2022-09-07T05:05:49.653Z,13.56
2022-09-07T05:06:36.493Z,13.63
2022-09-07T05:07:23.173Z,13.71
2022-09-07T05:08:09.892Z,13.82
2022-09-07T05:08:58.147Z,13.92
2022-09-07T05:09:44.982Z,13.97
2022-09-07T05:10:31.812Z,14.07
2022-09-07T05:11:20.221Z,14.09
2022-09-07T05:12:08.753Z,14.15
2022-09-07T05:12:55.554Z,14.11
2022-09-07T05:13:42.396Z,14.12
2022-09-07T05:14:29.193Z,14.15
2022-09-07T05:15:15.922Z,14.16
2022-09-07T05:16:09.454Z,14.23
2022-09-07T05:16:56.258Z,14.29
2022-09-07T05:17:42.981Z,14.23
2022-09-07T05:18:30.057Z,14.22
2022-09-07T05:19:16.875Z,14.23
2022-09-07T05:20:04.002Z,14.32
2022-09-07T05:20:50.742Z,14.38
2022-09-07T05:21:37.534Z,14.34
2022-09-07T05:22:25.393Z,14.37
2022-09-07T05:23:12.162Z,14.34
2022-09-07T05:24:00.282Z,14.39
2022-09-07T05:24:47.683Z,14.45
2022-09-07T05:25:35.152Z,14.50
2022-09-07T05:26:23.772Z,14.56
2022-09-07T05:27:10.665Z,14.53
2022-09-07T05:27:57.743Z,14.52
2022-09-07T05:28:44.843Z,14.48
2022-09-07T05:31:46.193Z,14.65
2022-09-07T05:32:33.017Z,14.79
2022-09-07T05:33:19.808Z,14.85
2022-09-07T05:35:13.842Z,14.86
2022-09-07T05:36:01.372Z,14.96
2022-09-07T05:36:48.152Z,15.00
2022-09-07T05:37:34.862Z,15.08
2022-09-07T05:38:21.622Z,15.16
2022-09-07T05:39:08.844Z,15.17
2022-09-07T05:39:57.114Z,15.26
2022-09-07T05:40:44.417Z,15.32
2022-09-07T05:41:31.178Z,15.35
2022-09-07T05:42:17.974Z,15.47
2022-09-07T05:43:04.813Z,15.67
2022-09-07T05:44:59.143Z,15.86
2022-09-07T05:45:46.057Z,15.99
2022-09-07T05:46:33.812Z,16.04
2022-09-07T05:47:20.622Z,16.10
2022-09-07T05:48:07.305Z,16.18
2022-09-07T05:48:54.353Z,16.21
2022-09-07T05:49:41.142Z,16.27
2022-09-07T05:50:27.930Z,16.32
2022-09-07T05:51:14.947Z,16.29
2022-09-07T05:52:01.744Z,16.33
2022-09-07T05:52:49.343Z,16.32
2022-09-07T05:53:37.454Z,16.39
2022-09-07T05:54:24.187Z,16.45
2022-09-07T05:55:28.839Z,16.50
2022-09-07T05:56:17.068Z,16.51
2022-09-07T05:57:04.194Z,16.54
2022-09-07T05:57:51.173Z,16.58
2022-09-07T05:58:38.007Z,16.77
2022-09-07T05:59:24.822Z,16.99
2022-09-07T06:00:13.453Z,17.28
2022-09-07T06:01:01.937Z,17.45
2022-09-07T06:01:48.993Z,17.59
2022-09-07T06:02:39.639Z,17.76
2022-09-07T06:03:26.756Z,17.98
2022-09-07T06:04:13.507Z,18.23
2022-09-07T06:05:00.232Z,18.43
2022-09-07T06:05:46.982Z,18.66
2022-09-07T06:06:38.492Z,18.73
2022-09-07T06:07:25.302Z,18.75
2022-09-07T06:08:12.264Z,18.80
2022-09-07T06:09:00.027Z,18.82
2022-09-07T06:10:53.493Z,19.07
2022-09-07T06:11:40.243Z,19.29
2022-09-07T06:12:27.123Z,19.44
2022-09-07T06:13:13.896Z,19.51
2022-09-07T06:14:00.683Z,19.75
2022-09-07T06:14:47.642Z,19.97
2022-09-07T06:15:34.852Z,20.27
2022-09-07T06:16:22.119Z,20.65
2022-09-07T06:17:08.993Z,21.13
2022-09-07T06:17:55.972Z,21.47
2022-09-07T06:18:44.841Z,21.60
2022-09-07T06:19:31.556Z,21.70
2022-09-07T06:20:18.325Z,21.63
2022-09-07T06:21:06.139Z,21.49
2022-09-07T06:21:52.916Z,21.11
2022-09-07T06:22:39.683Z,20.98
2022-09-07T06:23:26.404Z,20.75
2022-09-07T06:24:13.194Z,20.62
2022-09-07T06:25:00.045Z,20.46
2022-09-07T06:25:49.933Z,20.32
2022-09-07T06:26:36.662Z,20.16
2022-09-07T06:27:23.731Z,20.12
2022-09-07T06:28:10.994Z,20.05
2022-09-07T06:28:58.133Z,19.94
2022-09-07T06:29:44.923Z,19.87
2022-09-07T06:30:31.733Z,19.73
2022-09-07T06:31:20.532Z,19.56
2022-09-07T06:33:15.839Z,19.63
2022-09-07T06:34:03.686Z,19.50
2022-09-07T06:34:50.422Z,19.52
2022-09-07T06:35:37.143Z,19.58
2022-09-07T06:36:27.419Z,19.62
2022-09-07T06:37:14.522Z,19.64
2022-09-07T06:38:01.250Z,19.66
2022-09-07T06:38:49.142Z,19.67
2022-09-07T06:39:36.587Z,19.70
2022-09-07T06:40:23.523Z,19.83
2022-09-07T06:42:30.844Z,19.81
2022-09-07T06:43:17.753Z,19.95
2022-09-07T06:44:04.652Z,20.00
2022-09-07T06:44:51.473Z,20.04
2022-09-07T06:45:38.227Z,20.06
2022-09-07T06:47:32.533Z,20.16
2022-09-07T06:48:19.273Z,20.26
2022-09-07T06:49:06.052Z,20.31
2022-09-07T06:49:53.042Z,20.37
2022-09-07T06:50:39.912Z,20.42
2022-09-07T06:51:26.966Z,20.45
2022-09-07T06:52:13.632Z,20.52
2022-09-07T06:55:13.763Z,20.72
2022-09-07T06:56:01.281Z,20.90
2022-09-07T06:56:48.283Z,21.01
2022-09-07T06:57:34.971Z,20.93
2022-09-07T06:58:21.781Z,20.89
2022-09-07T06:59:08.611Z,21.04
2022-09-07T06:59:55.354Z,21.01
2022-09-07T07:00:42.176Z,21.15
2022-09-07T07:01:30.289Z,21.19
2022-09-07T07:02:16.984Z,21.25
2022-09-07T07:03:03.857Z,21.32
2022-09-07T07:03:51.533Z,21.37
2022-09-07T07:04:41.124Z,21.41
2022-09-07T07:05:28.092Z,21.46
2022-09-07T07:06:15.232Z,21.51
2022-09-07T07:07:02.033Z,21.50
2022-09-07T07:07:48.703Z,21.44
2022-09-07T07:08:35.529Z,21.29
2022-09-07T07:09:22.203Z,21.25
2022-09-07T07:10:09.225Z,21.36
2022-09-07T07:10:55.954Z,21.44
2022-09-07T07:11:44.763Z,21.48
2022-09-07T07:14:03.542Z,21.55
2022-09-07T07:14:50.203Z,21.60
2022-09-07T07:15:36.902Z,21.46
2022-09-07T07:16:24.243Z,21.50
2022-09-07T07:17:11.163Z,21.42
2022-09-07T07:18:09.613Z,21.47
2022-09-07T07:19:04.835Z,21.55
2022-09-07T07:19:51.562Z,21.61
2022-09-07T07:20:40.142Z,21.68
2022-09-07T07:21:28.992Z,21.74
2022-09-07T07:22:45.745Z,21.80
2022-09-07T07:23:27.968Z,21.89
2022-09-07T07:24:14.723Z,21.96
2022-09-07T07:25:01.443Z,22.05
2022-09-07T07:25:48.144Z,22.14
2022-09-07T07:26:35.114Z,22.25
2022-09-07T07:27:22.212Z,22.32
2022-09-07T07:29:18.543Z,22.29
2022-09-07T07:30:06.439Z,22.28
2022-09-07T07:30:56.841Z,22.27
2022-09-07T07:31:43.544Z,22.11
2022-09-07T07:32:30.327Z,22.17
2022-09-07T07:33:17.176Z,22.30
2022-09-07T07:34:04.356Z,22.35
2022-09-07T07:34:51.132Z,22.39
2022-09-07T07:35:37.846Z,22.49
2022-09-07T07:36:26.975Z,22.48
2022-09-07T07:37:14.983Z,22.52
2022-09-07T07:40:18.636Z,22.47
2022-09-07T07:42:15.173Z,22.61
2022-09-07T07:43:01.821Z,22.51
2022-09-07T07:43:53.880Z,22.53
2022-09-07T07:44:40.586Z,22.57
2022-09-07T07:46:34.257Z,22.53
2022-09-07T07:47:21.713Z,22.58
2022-09-07T07:48:08.965Z,22.59
2022-09-07T07:48:55.822Z,22.52
2022-09-07T07:49:42.563Z,22.47
2022-09-07T07:50:31.087Z,22.49
2022-09-07T07:51:19.332Z,22.44
2022-09-07T07:54:23.043Z,22.44
2022-09-07T07:56:17.233Z,22.67
2022-09-07T07:57:07.252Z,22.75
2022-09-07T07:57:54.052Z,22.68
2022-09-07T07:58:44.887Z,22.65
2022-09-07T07:59:31.684Z,22.72
2022-09-07T08:00:37.198Z,22.75
2022-09-07T08:01:25.193Z,22.80
2022-09-07T08:02:15.813Z,22.74
2022-09-07T08:03:02.752Z,22.80
2022-09-07T08:03:49.813Z,22.68
2022-09-07T08:04:37.138Z,22.67
2022-09-07T08:05:23.832Z,22.63
2022-09-07T08:06:15.593Z,22.68
2022-09-07T08:07:08.678Z,22.76
2022-09-07T08:07:56.723Z,22.71
2022-09-07T08:08:43.674Z,22.58
2022-09-07T08:09:30.452Z,22.62
2022-09-07T08:10:17.384Z,22.65
2022-09-07T08:11:08.482Z,22.62
2022-09-07T08:11:55.724Z,22.71
2022-09-07T08:12:42.566Z,22.74
2022-09-07T08:13:33.928Z,22.81
2022-09-07T08:14:21.903Z,22.84
2022-09-07T08:15:08.862Z,22.90
2022-09-07T08:15:59.530Z,22.97
2022-09-07T08:16:46.599Z,23.05
2022-09-07T08:17:33.423Z,22.96
2022-09-07T08:18:20.243Z,22.96
2022-09-07T08:19:06.992Z,23.04
2022-09-07T08:19:56.009Z,23.09
2022-09-07T08:20:43.224Z,23.13
2022-09-07T08:21:30.034Z,23.07
2022-09-07T08:22:16.895Z,23.11
2022-09-07T08:23:03.623Z,23.20
2022-09-07T08:23:50.342Z,23.28
2022-09-07T08:24:37.432Z,23.32
2022-09-07T08:25:25.582Z,23.28
2022-09-07T08:26:12.535Z,23.37
2022-09-07T08:26:59.509Z,23.36
2022-09-07T08:27:46.493Z,23.38
2022-09-07T08:28:36.072Z,23.36
2022-09-07T08:29:23.015Z,23.44
2022-09-07T08:30:10.920Z,23.46
2022-09-07T08:30:58.562Z,23.29
2022-09-07T08:31:45.543Z,23.16
2022-09-07T08:32:32.484Z,23.13
2022-09-07T08:33:19.304Z,23.12
2022-09-07T08:34:07.701Z,23.08
2022-09-07T08:34:54.447Z,23.07
2022-09-07T08:35:41.322Z,23.06
2022-09-07T08:36:28.203Z,23.12
2022-09-07T08:37:15.493Z,23.17
2022-09-07T08:38:02.290Z,23.13
2022-09-07T08:38:49.089Z,23.14
2022-09-07T08:39:36.853Z,23.17
2022-09-07T08:40:23.642Z,23.23
2022-09-07T08:41:28.512Z,23.22
2022-09-07T08:42:36.175Z,23.27
2022-09-07T08:43:30.764Z,23.39
2022-09-07T08:44:28.135Z,23.53
2022-09-07T08:45:21.152Z,23.55
2022-09-07T08:46:32.957Z,23.47
2022-09-07T08:47:38.811Z,23.47
2022-09-07T08:48:31.675Z,23.51
2022-09-07T08:49:34.083Z,23.60
2022-09-07T08:50:31.594Z,23.64
2022-09-07T08:51:24.442Z,23.73
2022-09-07T08:52:14.232Z,23.79
2022-09-07T08:53:16.064Z,23.61
2022-09-07T08:54:03.424Z,23.61
2022-09-07T08:55:24.202Z,23.69
2022-09-07T08:56:17.112Z,23.75
2022-09-07T08:58:32.250Z,23.95
2022-09-07T08:59:27.102Z,23.94
2022-09-07T09:00:17.067Z,24.00
2022-09-07T09:01:36.489Z,23.95
2022-09-07T09:02:31.122Z,23.92
2022-09-07T09:03:31.068Z,23.93
2022-09-07T09:04:27.522Z,23.95
2022-09-07T09:05:23.609Z,24.04
2022-09-07T09:06:18.733Z,24.00
2022-09-07T09:07:23.681Z,23.93
2022-09-07T09:08:50.612Z,23.89
2022-09-07T09:10:05.093Z,23.93
2022-09-07T09:10:59.842Z,24.06
2022-09-07T09:11:46.962Z,24.17
2022-09-07T09:13:27.361Z,24.17
2022-09-07T09:14:36.358Z,24.12
2022-09-07T09:15:38.078Z,24.07
2022-09-07T09:16:53.341Z,24.05
2022-09-07T09:17:44.214Z,24.04
2022-09-07T09:18:31.459Z,24.18
2022-09-07T09:19:27.393Z,24.30
2022-09-07T09:20:29.226Z,24.40
2022-09-07T09:21:18.913Z,24.38
2022-09-07T09:22:13.803Z,24.41
2022-09-07T09:23:15.104Z,24.46
2022-09-07T09:24:11.535Z,24.50
2022-09-07T09:25:13.652Z,24.42
2022-09-07T09:26:13.863Z,24.31
2022-09-07T09:27:00.674Z,24.39
2022-09-07T09:27:50.631Z,24.43
2022-09-07T09:28:38.962Z,24.44
2022-09-07T09:29:26.044Z,24.56
2022-09-07T09:30:21.109Z,24.67
2022-09-07T09:31:16.431Z,24.67
2022-09-07T09:32:35.916Z,24.68
2022-09-07T09:33:26.030Z,24.81
2022-09-07T09:34:15.842Z,25.00
2022-09-07T09:35:21.102Z,24.95
2022-09-07T09:36:23.873Z,24.97
2022-09-07T09:37:11.681Z,25.20
2022-09-07T09:37:58.966Z,25.32
2022-09-07T09:38:45.727Z,25.42
2022-09-07T09:39:36.830Z,25.40
2022-09-07T09:40:34.361Z,25.41
2022-09-07T09:41:22.048Z,25.24
2022-09-07T09:42:11.790Z,25.27
2022-09-07T09:43:18.404Z,25.30
2022-09-07T09:44:05.179Z,25.46
2022-09-07T09:44:51.992Z,25.57
2022-09-07T09:48:03.210Z,25.77
2022-09-07T09:48:56.502Z,25.84
2022-09-07T09:49:45.062Z,25.91
2022-09-07T09:52:53.063Z,25.96
2022-09-07T09:53:47.073Z,25.94
2022-09-07T09:54:39.852Z,25.84
2022-09-07T09:55:36.285Z,25.86
2022-09-07T09:56:36.483Z,25.74
2022-09-07T10:00:29.314Z,25.89
2022-09-07T10:01:27.264Z,25.96
2022-09-07T10:04:41.549Z,25.83
2022-09-07T10:05:54.588Z,25.92
2022-09-07T10:06:53.046Z,25.94
2022-09-07T10:07:39.812Z,26.04
2022-09-07T10:08:32.047Z,26.14
2022-09-07T10:09:21.252Z,26.02
2022-09-07T10:10:16.378Z,26.05
2022-09-07T10:11:05.871Z,26.14
2022-09-07T10:12:06.825Z,26.16
2022-09-07T10:12:54.662Z,25.99
2022-09-07T10:13:54.894Z,25.91
2022-09-07T10:14:45.794Z,25.85
2022-09-07T10:15:41.376Z,25.80
2022-09-07T10:16:40.042Z,25.78
2022-09-07T10:17:35.759Z,25.87
2022-09-07T10:18:30.468Z,25.93
2022-09-07T10:19:33.922Z,26.06
2022-09-07T10:20:35.138Z,26.23
2022-09-07T10:21:28.933Z,26.29
2022-09-07T10:22:22.294Z,26.31
2022-09-07T10:23:23.484Z,26.37
2022-09-07T10:24:10.314Z,26.32
2022-09-07T10:24:57.047Z,26.36
2022-09-07T10:25:47.665Z,26.36
2022-09-07T10:26:37.666Z,26.26
2022-09-07T10:27:37.302Z,26.22
2022-09-07T10:28:24.834Z,26.06
2022-09-07T10:29:17.833Z,25.99
2022-09-07T10:30:12.184Z,25.99
2022-09-07T10:31:16.849Z,25.90
2022-09-07T10:32:18.598Z,25.90
2022-09-07T10:33:24.744Z,25.96
2022-09-07T10:34:31.017Z,25.92
2022-09-07T10:35:26.213Z,25.99
2022-09-07T10:36:20.482Z,25.85
2022-09-07T10:37:12.257Z,25.79
2022-09-07T10:38:17.629Z,25.81
2022-09-07T10:39:12.530Z,25.81
2022-09-07T10:40:06.837Z,25.89
2022-09-07T10:41:04.481Z,26.01
2022-09-07T10:42:05.564Z,26.15
2022-09-07T10:44:07.342Z,26.10
2022-09-07T10:45:20.043Z,26.15
2022-09-07T10:47:32.214Z,26.08
2022-09-07T10:48:24.763Z,26.19
2022-09-07T10:49:23.542Z,26.17
2022-09-07T10:50:43.993Z,26.18
2022-09-07T10:51:40.393Z,26.21
2022-09-07T10:52:33.452Z,26.35
2022-09-07T10:54:29.887Z,26.33
2022-09-07T10:55:18.202Z,26.23
2022-09-07T10:56:15.262Z,26.27
2022-09-07T10:57:13.842Z,26.27
2022-09-07T10:58:18.476Z,26.26
2022-09-07T10:59:21.249Z,26.32
2022-09-07T11:00:14.058Z,26.24
2022-09-07T11:01:40.158Z,26.32
2022-09-07T11:02:38.726Z,26.30
2022-09-07T11:03:35.746Z,25.98
2022-09-07T11:04:40.913Z,25.92
2022-09-07T11:05:38.284Z,25.92
2022-09-07T11:06:35.852Z,25.95
2022-09-07T11:07:26.113Z,25.97
2022-09-07T11:08:28.707Z,25.98
2022-09-07T11:09:48.603Z,25.94
2022-09-07T11:10:55.603Z,26.01
2022-09-07T11:12:52.654Z,25.94
2022-09-07T11:14:09.005Z,25.94
2022-09-07T11:14:52.902Z,25.91
2022-09-07T11:15:50.954Z,25.89
2022-09-07T11:16:53.781Z,25.96
2022-09-07T11:17:52.068Z,25.97
2022-09-07T11:19:35.132Z,25.99
2022-09-07T11:20:23.216Z,25.95
2022-09-07T11:21:15.104Z,25.80
2022-09-07T11:22:19.761Z,25.62
2022-09-07T11:23:19.837Z,25.61
2022-09-07T11:24:11.873Z,25.81
2022-09-07T11:25:31.358Z,25.86
2022-09-07T11:26:25.964Z,25.81
2022-09-07T11:27:18.792Z,25.88
2022-09-07T11:28:13.852Z,25.84
2022-09-07T11:29:29.970Z,25.78
2022-09-07T11:30:25.519Z,25.85
2022-09-07T11:31:20.457Z,25.95
2022-09-07T11:32:28.927Z,26.01
2022-09-07T11:33:21.273Z,26.15
2022-09-07T11:34:31.864Z,26.14
2022-09-07T11:35:30.822Z,26.07
2022-09-07T11:36:20.024Z,26.00
2022-09-07T11:37:14.229Z,25.97
2022-09-07T11:38:09.562Z,25.93
2022-09-07T11:39:11.946Z,25.98
2022-09-07T11:40:12.992Z,26.04
2022-09-07T11:41:04.343Z,26.14
2022-09-07T11:42:42.685Z,26.12
2022-09-07T11:43:22.937Z,26.12
2022-09-07T11:44:25.386Z,26.11